Time;durP1;ratioP1;P1;durP2;ratioP2;P2;SDS_P1;SDS_P2;PMS_P1;PMS_P2;Temp;Humidity;BMP_temperature;BMP_pressure;BME280_temperature;BME280_humidity;BME280_pressure;Samples;Min_cycle;Max_cycle;Signal;HPM_P1;HPM_P2
2021/01/16 00:00:40;;;;;;;15.03;10.30;;;2.10;78.50;;;;;;5012844;28;20211;-62
2021/01/16 00:03:11;;;;;;;13.70;9.80;;;2.10;78.30;;;;;;5014716;28;20208;-62
2021/01/16 00:05:39;;;;;;;12.73;10.07;;;2.10;78.30;;;;;;5014771;28;20212;-62
2021/01/16 00:08:13;;;;;;;16.03;10.20;;;2.00;78.30;;;;;;5014411;28;20212;-62
2021/01/16 00:10:48;;;;;;;15.80;10.77;;;2.00;78.20;;;;;;5014456;28;20215;-62
2021/01/16 00:13:16;;;;;;;16.13;9.63;;;2.00;78.20;;;;;;5028763;28;20222;-62
2021/01/16 00:15:44;;;;;;;15.20;9.50;;;2.00;78.40;;;;;;5014087;28;20224;-62
2021/01/16 00:18:17;;;;;;;14.47;9.57;;;2.00;78.20;;;;;;5029903;28;20672;-62
2021/01/16 00:20:49;;;;;;;11.63;8.90;;;1.90;78.10;;;;;;5014457;28;20207;-62
2021/01/16 00:23:16;;;;;;;15.70;9.33;;;1.90;78.10;;;;;;5013632;28;20578;-62
2021/01/16 00:25:44;;;;;;;14.87;9.93;;;1.90;78.40;;;;;;5013173;28;20216;-62
2021/01/16 00:28:19;;;;;;;13.40;9.63;;;1.80;78.40;;;;;;5013947;28;20222;-61
2021/01/16 00:30:45;;;;;;;13.97;9.50;;;1.80;78.70;;;;;;5024678;28;20204;-61
2021/01/16 00:33:19;;;;;;;13.43;9.30;;;1.80;78.80;;;;;;5014106;28;20227;-62
2021/01/16 00:35:47;;;;;;;14.27;10.40;;;1.80;79.00;;;;;;5011761;28;20548;-62
2021/01/16 00:38:14;;;;;;;14.63;10.60;;;1.70;79.30;;;;;;5013538;28;20240;-61
2021/01/16 00:40:41;;;;;;;12.53;9.53;;;1.60;79.60;;;;;;5012218;28;20581;-62
2021/01/16 00:43:13;;;;;;;14.10;10.20;;;1.60;79.90;;;;;;5014160;28;20234;-62
2021/01/16 00:45:44;;;;;;;14.60;10.23;;;1.50;80.00;;;;;;5014189;28;20219;-62
2021/01/16 00:48:16;;;;;;;13.53;9.17;;;1.50;79.80;;;;;;5013830;28;20652;-62
2021/01/16 00:50:47;;;;;;;14.83;9.60;;;1.50;79.80;;;;;;5014247;28;20204;-62
2021/01/16 00:53:13;;;;;;;15.93;10.23;;;1.50;79.70;;;;;;5010901;28;20219;-62
2021/01/16 00:55:40;;;;;;;13.13;9.37;;;1.50;79.70;;;;;;5013551;28;20223;-62
2021/01/16 00:58:14;;;;;;;17.37;9.93;;;1.50;79.80;;;;;;5013596;28;20655;-62
2021/01/16 01:00:43;;;;;;;13.60;9.57;;;1.50;79.90;;;;;;5013203;28;20211;-62
2021/01/16 01:03:18;;;;;;;13.77;9.90;;;1.60;79.80;;;;;;5028529;28;20208;-62
2021/01/16 01:05:44;;;;;;;15.97;9.90;;;1.60;79.60;;;;;;5013302;28;20207;-62
2021/01/16 01:08:11;;;;;;;15.30;10.33;;;1.60;79.80;;;;;;5028001;28;20208;-62
2021/01/16 01:10:46;;;;;;;20.30;10.23;;;1.70;79.90;;;;;;5013253;28;20555;-62
2021/01/16 01:13:13;;;;;;;14.77;9.73;;;1.70;79.90;;;;;;5012516;28;20214;-62
2021/01/16 01:15:40;;;;;;;14.23;10.10;;;1.80;79.60;;;;;;5013150;28;20224;-62
2021/01/16 01:18:07;;;;;;;18.13;10.60;;;1.90;79.20;;;;;;5012415;28;20223;-62
2021/01/16 01:20:34;;;;;;;14.77;9.80;;;2.00;79.00;;;;;;5012903;28;20203;-62
2021/01/16 01:23:01;;;;;;;16.10;9.43;;;2.00;78.90;;;;;;5012874;28;20216;-62
2021/01/16 01:25:28;;;;;;;15.67;10.07;;;2.00;79.10;;;;;;5012261;28;20203;-62
2021/01/16 01:27:57;;;;;;;15.47;10.13;;;2.10;79.20;;;;;;5012651;28;20226;-62
2021/01/16 01:30:26;;;;;;;13.17;10.03;;;2.10;79.30;;;;;;5011334;28;20258;-62
2021/01/16 01:32:53;;;;;;;14.67;9.37;;;2.00;79.10;;;;;;5013219;28;20235;-62
2021/01/16 01:35:20;;;;;;;18.10;10.50;;;2.10;78.80;;;;;;5012701;28;20220;-62
2021/01/16 01:37:52;;;;;;;15.57;10.73;;;2.10;78.50;;;;;;5013077;28;20258;-62
2021/01/16 01:40:21;;;;;;;13.63;9.97;;;2.20;78.20;;;;;;5012417;28;20219;-62
2021/01/16 01:42:50;;;;;;;14.57;10.53;;;2.20;78.30;;;;;;5012560;28;20560;-62
2021/01/16 01:45:18;;;;;;;13.90;10.20;;;2.30;78.50;;;;;;5012021;28;20265;-62
2021/01/16 01:47:46;;;;;;;13.30;9.97;;;2.30;78.10;;;;;;5012364;28;20222;-61
2021/01/16 01:50:15;;;;;;;16.37;10.67;;;2.30;77.80;;;;;;5012313;28;20576;-61
2021/01/16 01:52:41;;;;;;;13.93;10.33;;;2.30;77.70;;;;;;5012640;28;20220;-62
2021/01/16 01:55:10;;;;;;;14.47;10.43;;;2.30;77.80;;;;;;5010968;28;20211;-63
2021/01/16 01:57:39;;;;;;;13.90;9.83;;;2.30;78.00;;;;;;5028022;28;20219;-61
2021/01/16 02:00:11;;;;;;;14.63;10.57;;;2.30;78.60;;;;;;5011493;28;20200;-62
2021/01/16 02:02:38;;;;;;;13.50;9.70;;;2.20;79.00;;;;;;5011771;28;20525;-62
2021/01/16 02:05:07;;;;;;;18.33;9.93;;;2.20;79.40;;;;;;5012671;28;20196;-62
2021/01/16 02:07:39;;;;;;;14.23;10.23;;;2.20;79.60;;;;;;5006347;28;20579;-62
2021/01/16 02:10:12;;;;;;;17.03;10.17;;;2.20;79.70;;;;;;5004864;28;20215;-62
2021/01/16 02:12:41;;;;;;;17.80;11.17;;;2.10;79.60;;;;;;5014724;28;20270;-62
2021/01/16 02:15:17;;;;;;;18.07;11.50;;;2.10;79.50;;;;;;5015990;28;20559;-62
2021/01/16 02:17:49;;;;;;;16.67;10.43;;;2.10;79.40;;;;;;5015807;28;20238;-62
2021/01/16 02:20:27;;;;;;;18.40;10.83;;;2.00;79.40;;;;;;5016320;28;20200;-61
2021/01/16 02:23:18;;;;;;;14.50;10.67;;;2.10;79.90;;;;;;5015312;28;20222;-62
2021/01/16 02:25:57;;;;;;;18.80;11.90;;;2.00;80.00;;;;;;5016478;28;20211;-62
2021/01/16 02:28:30;;;;;;;15.77;11.20;;;2.00;79.90;;;;;;5016528;28;20562;-62
2021/01/16 02:30:57;;;;;;;18.73;11.87;;;2.00;79.60;;;;;;5008135;28;20216;-62
2021/01/16 02:33:26;;;;;;;19.57;11.23;;;2.00;80.00;;;;;;5013648;28;20219;-62
2021/01/16 02:36:03;;;;;;;17.23;12.67;;;2.10;79.30;;;;;;5015382;28;20208;-61
2021/01/16 02:39:03;;;;;;;17.23;11.77;;;2.10;79.30;;;;;;5015588;28;20576;-61
2021/01/16 02:41:55;;;;;;;16.03;11.70;;;2.10;79.40;;;;;;5013484;28;20204;-62
2021/01/16 02:44:56;;;;;;;17.37;11.53;;;2.10;79.40;;;;;;5010106;28;20208;-62
2021/01/16 02:47:22;;;;;;;17.83;12.63;;;2.00;79.30;;;;;;5006146;28;20203;-62
2021/01/16 02:49:59;;;;;;;18.77;12.47;;;2.00;79.30;;;;;;5014130;28;20219;-62
2021/01/16 02:52:29;;;;;;;23.93;12.60;;;2.00;80.20;;;;;;5015848;28;20208;-62
2021/01/16 02:54:58;;;;;;;17.43;12.33;;;2.00;79.60;;;;;;5014701;28;20682;-62
2021/01/16 02:57:25;;;;;;;17.40;12.77;;;2.00;79.60;;;;;;5015322;28;20203;-62
2021/01/16 02:59:52;;;;;;;17.77;11.70;;;2.10;80.00;;;;;;5012782;28;20236;-62
2021/01/16 03:02:18;;;;;;;14.97;10.80;;;2.10;80.30;;;;;;5030439;28;20651;-62
2021/01/16 03:04:46;;;;;;;16.97;12.90;;;2.10;80.60;;;;;;5015539;28;20629;-62
2021/01/16 03:07:15;;;;;;;18.07;12.17;;;2.10;81.00;;;;;;5015271;28;20206;-62
2021/01/16 03:09:42;;;;;;;18.30;12.70;;;2.10;81.20;;;;;;5015842;28;20599;-62
2021/01/16 03:12:11;;;;;;;17.40;12.93;;;2.10;81.00;;;;;;5014984;28;20215;-62
2021/01/16 03:14:40;;;;;;;17.00;12.37;;;2.00;81.00;;;;;;5014805;28;20288;-62
2021/01/16 03:17:10;;;;;;;21.47;12.33;;;2.00;81.10;;;;;;5015085;28;20212;-62
2021/01/16 03:19:38;;;;;;;19.97;12.93;;;2.00;81.40;;;;;;5016400;28;20254;-62
2021/01/16 03:22:15;;;;;;;17.43;12.93;;;2.00;81.40;;;;;;5014168;28;20208;-62
2021/01/16 03:24:42;;;;;;;17.43;12.93;;;2.00;81.50;;;;;;5015095;28;20210;-62
2021/01/16 03:27:08;;;;;;;17.70;12.90;;;2.00;81.80;;;;;;5013972;28;20216;-62
2021/01/16 03:29:35;;;;;;;19.90;13.57;;;1.90;82.00;;;;;;5015081;28;20212;-62
2021/01/16 03:32:02;;;;;;;20.87;14.03;;;1.90;81.90;;;;;;5013765;28;20211;-62
2021/01/16 03:34:29;;;;;;;19.50;13.13;;;1.90;81.80;;;;;;5014780;28;20238;-62
2021/01/16 03:36:56;;;;;;;23.00;12.73;;;1.90;81.80;;;;;;5014695;28;20683;-62
2021/01/16 03:39:22;;;;;;;20.27;13.10;;;1.90;81.80;;;;;;5014008;28;20250;-62
2021/01/16 03:41:49;;;;;;;21.13;13.67;;;1.90;81.90;;;;;;5014966;28;20204;-62
2021/01/16 03:44:15;;;;;;;20.93;13.00;;;1.90;81.90;;;;;;5007606;28;20218;-62
2021/01/16 03:46:42;;;;;;;18.93;13.40;;;1.90;82.00;;;;;;5014521;28;20223;-62
2021/01/16 03:49:08;;;;;;;19.87;14.33;;;1.90;82.00;;;;;;5029606;28;20219;-62
2021/01/16 03:51:35;;;;;;;21.43;14.70;;;1.80;82.00;;;;;;5014790;28;20215;-62
2021/01/16 03:54:03;;;;;;;19.67;13.47;;;1.80;82.10;;;;;;5014245;28;20556;-63
2021/01/16 03:56:29;;;;;;;18.77;13.63;;;1.70;82.20;;;;;;5014021;28;20220;-62
2021/01/16 03:58:56;;;;;;;21.47;14.17;;;1.70;82.50;;;;;;5014116;28;20228;-61
2021/01/16 04:01:22;;;;;;;20.47;14.87;;;1.60;82.60;;;;;;5014212;28;20211;-61
2021/01/16 04:03:49;;;;;;;21.57;14.47;;;1.60;82.80;;;;;;5012933;28;20566;-62
2021/01/16 04:06:16;;;;;;;20.53;14.53;;;1.50;83.00;;;;;;5014198;28;20551;-62
2021/01/16 04:08:43;;;;;;;18.03;13.13;;;1.50;83.10;;;;;;5014466;28;20636;-62
2021/01/16 04:11:11;;;;;;;19.50;13.93;;;1.40;83.20;;;;;;5014138;28;20212;-62
2021/01/16 04:13:38;;;;;;;23.63;14.57;;;1.30;83.30;;;;;;5013613;28;20223;-62
2021/01/16 04:16:06;;;;;;;19.47;13.80;;;1.30;83.50;;;;;;5013937;28;20207;-62
2021/01/16 04:18:34;;;;;;;20.53;13.40;;;1.20;83.60;;;;;;5010164;28;20243;-62
2021/01/16 04:21:02;;;;;;;20.13;13.83;;;1.20;84.00;;;;;;5013023;28;20242;-62
2021/01/16 04:23:28;;;;;;;21.90;14.90;;;1.10;84.10;;;;;;5013747;28;20294;-62
2021/01/16 04:25:56;;;;;;;20.10;13.50;;;1.10;84.30;;;;;;5013473;28;20214;-62
2021/01/16 04:28:22;;;;;;;24.33;14.40;;;1.00;84.40;;;;;;5013637;28;20584;-62
2021/01/16 04:30:50;;;;;;;18.37;13.17;;;1.00;84.50;;;;;;5012586;28;20556;-62
2021/01/16 04:33:17;;;;;;;20.33;14.53;;;0.90;84.40;;;;;;5012933;28;20204;-62
2021/01/16 04:35:44;;;;;;;24.43;15.23;;;0.80;84.60;;;;;;5012086;28;20219;-62
2021/01/16 04:38:12;;;;;;;18.73;13.60;;;0.80;84.90;;;;;;5013432;28;20246;-62
2021/01/16 04:40:39;;;;;;;24.33;14.40;;;0.70;85.20;;;;;;5012850;28;20204;-62
2021/01/16 04:43:06;;;;;;;21.70;14.43;;;0.70;85.30;;;;;;5013122;28;20215;-62
2021/01/16 04:45:33;;;;;;;22.50;13.90;;;0.70;85.50;;;;;;5012952;28;20302;-62
2021/01/16 04:48:03;;;;;;;21.07;12.60;;;0.60;85.60;;;;;;5013251;28;20516;-62
2021/01/16 04:50:35;;;;;;;18.83;13.80;;;0.60;85.40;;;;;;5011928;28;20215;-62
2021/01/16 04:53:07;;;;;;;21.17;14.13;;;0.50;85.40;;;;;;5012987;28;20211;-62
2021/01/16 04:55:37;;;;;;;20.57;13.37;;;0.40;85.60;;;;;;5013514;28;20214;-62
2021/01/16 04:58:12;;;;;;;19.63;13.43;;;0.40;85.70;;;;;;5011505;28;20250;-62
2021/01/16 05:00:42;;;;;;;24.77;14.13;;;0.40;86.50;;;;;;5009739;28;20762;-62
2021/01/16 05:03:10;;;;;;;20.10;14.27;;;0.40;85.90;;;;;;5011718;28;20200;-62
2021/01/16 05:05:39;;;;;;;18.37;12.50;;;0.40;86.10;;;;;;5009856;28;20208;-62
2021/01/16 05:08:08;;;;;;;21.03;13.93;;;0.40;86.10;;;;;;5007675;28;20216;-62
2021/01/16 05:10:39;;;;;;;18.63;12.60;;;0.40;85.90;;;;;;5009833;28;20222;-62
2021/01/16 05:13:14;;;;;;;21.77;13.60;;;0.30;85.90;;;;;;5008442;28;20550;-62
2021/01/16 05:15:42;;;;;;;20.80;14.47;;;0.30;86.00;;;;;;5013281;28;20211;-62
2021/01/16 05:18:10;;;;;;;18.77;14.33;;;0.20;86.20;;;;;;5012395;28;20227;-62
2021/01/16 05:20:42;;;;;;;22.30;15.37;;;0.10;86.40;;;;;;5012945;28;20212;-62
2021/01/16 05:23:12;;;;;;;20.10;14.50;;;0.10;86.60;;;;;;5006290;28;20204;-62
2021/01/16 05:25:40;;;;;;;17.10;13.00;;;0.10;86.80;;;;;;5011512;28;20215;-62
2021/01/16 05:28:08;;;;;;;21.07;13.93;;;0.10;86.80;;;;;;5010880;28;20226;-62
2021/01/16 05:30:56;;;;;;;20.20;13.27;;;0.00;86.80;;;;;;5012046;28;20581;-62
2021/01/16 05:33:26;;;;;;;24.37;16.67;;;0.00;86.90;;;;;;5006788;28;20216;-62
2021/01/16 05:35:55;;;;;;;18.97;13.03;;;0.00;87.00;;;;;;5012652;28;20519;-62
2021/01/16 05:38:25;;;;;;;21.23;15.10;;;0.00;87.10;;;;;;5027473;28;20664;-62
2021/01/16 05:40:56;;;;;;;27.30;14.50;;;0.00;87.20;;;;;;5011880;28;20208;-62
2021/01/16 05:43:23;;;;;;;22.30;15.40;;;0.00;87.30;;;;;;5012914;28;20215;-62
2021/01/16 05:45:58;;;;;;;23.00;15.20;;;0.00;87.40;;;;;;5011549;28;20204;-62
2021/01/16 05:48:28;;;;;;;21.10;13.97;;;-0.10;87.50;;;;;;5012550;28;20207;-62
2021/01/16 05:50:56;;;;;;;26.27;13.73;;;-0.10;87.60;;;;;;5012659;28;20230;-62
2021/01/16 05:53:25;;;;;;;24.80;15.97;;;-0.10;87.60;;;;;;5012634;28;20219;-62
2021/01/16 05:55:56;;;;;;;22.07;14.17;;;-0.10;87.80;;;;;;5012694;28;20219;-62
2021/01/16 05:58:27;;;;;;;21.57;13.47;;;-0.10;87.90;;;;;;5012570;28;20241;-62
2021/01/16 06:00:57;;;;;;;25.33;14.37;;;-0.10;87.90;;;;;;5013315;28;20215;-62
2021/01/16 06:03:24;;;;;;;21.67;14.37;;;-0.10;88.00;;;;;;5012497;28;20200;-62
2021/01/16 06:05:52;;;;;;;19.73;13.93;;;-0.10;88.10;;;;;;5013014;28;20221;-62
2021/01/16 06:08:20;;;;;;;24.13;15.50;;;-0.10;88.20;;;;;;5013302;28;20231;-62
2021/01/16 06:10:56;;;;;;;26.43;15.77;;;-0.10;88.20;;;;;;5012732;28;20226;-62
2021/01/16 06:13:31;;;;;;;20.57;14.23;;;-0.10;88.20;;;;;;5012897;28;20222;-62
2021/01/16 06:16:12;;;;;;;23.23;14.63;;;-0.10;88.30;;;;;;5012841;28;20229;-62
2021/01/16 06:18:47;;;;;;;21.77;13.93;;;-0.10;88.40;;;;;;5012573;28;20257;-62
2021/01/16 06:21:28;;;;;;;23.83;15.43;;;-0.10;88.40;;;;;;5029365;28;20231;-62
2021/01/16 06:23:56;;;;;;;28.47;15.43;;;-0.10;88.40;;;;;;5012980;28;20204;-62
2021/01/16 06:26:24;;;;;;;26.73;16.67;;;-0.10;88.50;;;;;;5012643;28;20211;-62
2021/01/16 06:28:58;;;;;;;28.53;15.47;;;-0.10;88.60;;;;;;5026535;28;20200;-62
2021/01/16 06:31:27;;;;;;;23.57;15.47;;;-0.10;88.70;;;;;;5010518;28;20223;-62
2021/01/16 06:33:59;;;;;;;23.50;15.83;;;-0.10;88.80;;;;;;5011357;28;20235;-62
2021/01/16 06:36:31;;;;;;;25.40;15.50;;;-0.10;88.90;;;;;;5011049;28;20291;-62
2021/01/16 06:39:00;;;;;;;22.77;15.13;;;-0.10;89.10;;;;;;5011376;28;20226;-62
2021/01/16 06:41:30;;;;;;;21.90;15.67;;;-0.10;89.20;;;;;;5011334;28;20527;-62
2021/01/16 06:43:57;;;;;;;22.13;15.83;;;-0.10;89.30;;;;;;5011720;28;20204;-62
2021/01/16 06:46:50;;;;;;;22.87;15.93;;;-0.10;89.20;;;;;;5011028;28;20485;-62
2021/01/16 06:49:26;;;;;;;25.20;15.20;;;-0.10;89.40;;;;;;5011999;28;20215;-62
2021/01/16 06:52:00;;;;;;;26.17;16.13;;;-0.10;89.60;;;;;;5012541;28;20207;-62
2021/01/16 06:54:29;;;;;;;23.50;15.07;;;-0.10;89.50;;;;;;5010754;28;20527;-62
2021/01/16 06:57:00;;;;;;;22.43;15.43;;;-0.10;89.60;;;;;;5014165;28;20203;-62
2021/01/16 06:59:28;;;;;;;20.90;15.33;;;-0.10;89.70;;;;;;5015448;28;20233;-62
2021/01/16 07:01:56;;;;;;;21.77;15.80;;;-0.10;89.50;;;;;;5014622;28;20204;-62
2021/01/16 07:04:25;;;;;;;28.20;16.23;;;-0.10;89.50;;;;;;5015688;28;20207;-62
2021/01/16 07:06:52;;;;;;;20.63;14.93;;;-0.20;89.60;;;;;;5015505;28;20208;-62
2021/01/16 07:09:21;;;;;;;25.67;16.30;;;-0.10;89.70;;;;;;5015844;28;20216;-62
2021/01/16 07:11:51;;;;;;;21.50;15.03;;;-0.10;89.90;;;;;;5013548;28;20211;-62
2021/01/16 07:14:18;;;;;;;25.57;15.20;;;-0.10;89.70;;;;;;5015706;28;20614;-62
2021/01/16 07:16:46;;;;;;;21.40;14.37;;;0.00;89.40;;;;;;5014971;28;20226;-62
2021/01/16 07:19:20;;;;;;;22.27;15.13;;;-0.10;89.30;;;;;;5015563;28;20235;-62
2021/01/16 07:21:47;;;;;;;20.93;13.97;;;0.00;89.40;;;;;;5015211;28;20245;-62
2021/01/16 07:24:14;;;;;;;23.90;15.90;;;0.10;89.20;;;;;;5015113;28;20548;-62
2021/01/16 07:26:44;;;;;;;23.13;14.97;;;0.20;88.80;;;;;;5014934;28;20531;-62
2021/01/16 07:29:11;;;;;;;22.53;14.93;;;0.20;88.40;;;;;;5014835;28;20218;-62
2021/01/16 07:31:40;;;;;;;25.27;15.53;;;0.30;88.20;;;;;;5014080;28;20270;-62
2021/01/16 07:34:07;;;;;;;39.20;20.23;;;0.30;88.00;;;;;;5014395;28;20208;-63
2021/01/16 07:36:35;;;;;;;31.60;20.13;;;0.40;87.90;;;;;;5013627;28;20223;-62
2021/01/16 07:39:09;;;;;;;28.70;17.37;;;0.50;87.80;;;;;;5015045;28;20243;-62
2021/01/16 07:41:37;;;;;;;26.83;16.60;;;0.50;87.80;;;;;;5031225;28;20208;-62
2021/01/16 07:44:11;;;;;;;31.93;18.33;;;0.60;87.70;;;;;;5011548;28;20214;-62
2021/01/16 07:46:42;;;;;;;20.60;15.93;;;0.70;87.80;;;;;;5014784;28;20200;-62
2021/01/16 07:49:14;;;;;;;30.90;17.57;;;0.80;87.70;;;;;;5010807;28;20769;-62
2021/01/16 07:51:40;;;;;;;23.13;17.37;;;0.90;87.60;;;;;;5014040;28;20303;-62
2021/01/16 07:54:10;;;;;;;29.80;18.23;;;1.00;87.40;;;;;;5014509;28;20211;-63
2021/01/16 07:56:42;;;;;;;28.43;16.10;;;1.10;87.40;;;;;;5014221;28;20299;-62
2021/01/16 07:59:19;;;;;;;30.70;19.13;;;1.20;87.20;;;;;;5014289;28;20228;-62
2021/01/16 08:02:11;;;;;;;23.50;17.47;;;1.30;87.10;;;;;;5014146;28;20204;-62
2021/01/16 08:04:50;;;;;;;26.07;18.90;;;1.40;87.10;;;;;;5014453;28;20212;-62
2021/01/16 08:07:40;;;;;;;24.27;17.47;;;1.50;86.90;;;;;;5007646;28;20562;-62
2021/01/16 08:10:13;;;;;;;26.90;18.30;;;1.60;86.80;;;;;;5014716;28;20227;-62
2021/01/16 08:12:45;;;;;;;25.10;17.43;;;1.70;86.70;;;;;;5009422;28;20207;-63
2021/01/16 08:15:16;;;;;;;24.10;16.47;;;1.80;86.70;;;;;;5013751;28;20208;-62
2021/01/16 08:17:45;;;;;;;25.90;18.13;;;1.90;86.70;;;;;;5014089;28;20251;-62
2021/01/16 08:20:19;;;;;;;25.77;18.20;;;2.00;86.60;;;;;;5013136;28;20631;-62
2021/01/16 08:22:54;;;;;;;30.23;18.50;;;2.10;86.50;;;;;;5014143;28;20212;-62
2021/01/16 08:25:23;;;;;;;27.03;18.40;;;2.20;86.30;;;;;;5013747;28;20200;-62
2021/01/16 08:27:52;;;;;;;34.10;20.43;;;2.30;86.10;;;;;;5029033;28;20215;-62
2021/01/16 08:30:21;;;;;;;42.13;22.70;;;2.40;85.90;;;;;;5013586;28;20226;-62
2021/01/16 08:32:59;;;;;;;41.10;21.37;;;2.50;85.80;;;;;;5014217;28;20242;-62
2021/01/16 08:35:30;;;;;;;42.60;24.90;;;2.60;85.60;;;;;;5013756;28;20636;-62
2021/01/16 08:38:18;;;;;;;48.77;24.23;;;2.70;85.50;;;;;;5013455;28;20529;-63
2021/01/16 08:40:54;;;;;;;46.63;24.67;;;2.80;85.20;;;;;;5014028;28;20204;-62
2021/01/16 08:43:54;;;;;;;41.83;24.13;;;3.00;85.10;;;;;;5014519;28;20620;-62
2021/01/16 08:46:25;;;;;;;46.27;23.83;;;3.10;84.70;;;;;;5011955;28;20632;-62
2021/01/16 08:49:09;;;;;;;41.40;22.63;;;3.20;84.50;;;;;;5013178;28;20302;-62
2021/01/16 08:51:41;;;;;;;37.43;21.20;;;3.30;84.10;;;;;;5012780;28;20269;-62
2021/01/16 08:54:17;;;;;;;31.13;18.73;;;3.40;83.90;;;;;;5009305;28;20220;-62
2021/01/16 08:57:16;;;;;;;26.20;17.77;;;3.50;83.50;;;;;;5012379;28;20711;-61
2021/01/16 08:59:42;;;;;;;27.63;16.57;;;3.70;83.20;;;;;;5012183;28;20231;-62
2021/01/16 09:02:17;;;;;;;20.57;15.70;;;3.80;83.00;;;;;;5013285;28;20228;-62
2021/01/16 09:04:45;;;;;;;18.27;14.57;;;3.90;82.50;;;;;;5027942;28;20215;-62
2021/01/16 09:07:23;;;;;;;25.23;17.37;;;4.00;82.00;;;;;;5012377;28;20533;-62
2021/01/16 09:09:58;;;;;;;22.03;16.43;;;4.10;81.40;;;;;;5027858;28;20238;-62
2021/01/16 09:12:38;;;;;;;22.70;16.27;;;4.20;81.10;;;;;;5013489;28;20211;-62
2021/01/16 09:15:24;;;;;;;26.13;16.67;;;4.30;80.80;;;;;;5011182;28;20211;-62
2021/01/16 09:18:03;;;;;;;18.57;15.37;;;4.40;80.40;;;;;;5012753;28;20292;-62
2021/01/16 09:20:37;;;;;;;23.40;15.57;;;4.50;80.00;;;;;;5012729;28;20310;-62
2021/01/16 09:23:19;;;;;;;23.37;15.83;;;4.60;79.60;;;;;;5007679;28;20208;-62
2021/01/16 09:25:46;;;;;;;22.27;15.60;;;4.70;79.00;;;;;;5013234;28;20215;-62
2021/01/16 09:28:13;;;;;;;21.63;15.63;;;4.80;78.70;;;;;;5013694;28;20208;-62
2021/01/16 09:30:40;;;;;;;23.43;15.77;;;4.90;78.00;;;;;;5013984;28;20216;-62
2021/01/16 09:33:20;;;;;;;22.67;15.60;;;5.00;77.30;;;;;;5013843;28;20551;-62
2021/01/16 09:35:47;;;;;;;26.47;15.97;;;5.00;76.90;;;;;;5012561;28;20203;-62
2021/01/16 09:38:20;;;;;;;20.17;15.23;;;5.10;76.70;;;;;;5012128;28;20240;-62
2021/01/16 09:40:48;;;;;;;19.90;14.97;;;5.20;75.90;;;;;;5011808;28;20230;-62
2021/01/16 09:43:15;;;;;;;21.73;15.07;;;5.30;75.60;;;;;;5012199;28;20212;-62
2021/01/16 09:46:01;;;;;;;19.03;14.53;;;5.30;75.40;;;;;;5010954;28;20545;-62
2021/01/16 09:48:32;;;;;;;18.30;14.20;;;5.40;74.50;;;;;;5020363;28;20600;-63
2021/01/16 09:51:00;;;;;;;20.70;14.13;;;5.50;74.10;;;;;;5012225;28;20223;-62
2021/01/16 09:53:29;;;;;;;20.57;14.70;;;5.50;73.90;;;;;;5006497;28;20204;-61
2021/01/16 09:55:56;;;;;;;19.50;14.03;;;5.60;73.40;;;;;;5010826;28;20212;-62
2021/01/16 09:58:42;;;;;;;23.47;14.73;;;5.70;73.20;;;;;;5009449;28;20624;-62
2021/01/16 10:01:19;;;;;;;19.87;14.83;;;5.80;72.60;;;;;;5010470;28;20207;-62
2021/01/16 10:03:47;;;;;;;19.67;14.77;;;5.80;72.10;;;;;;5009237;28;20604;-62
2021/01/16 10:06:18;;;;;;;19.83;14.50;;;5.90;72.20;;;;;;5011878;28;20536;-62
2021/01/16 10:08:49;;;;;;;21.97;15.37;;;6.00;71.90;;;;;;5013208;28;20215;-62
2021/01/16 10:11:52;;;;;;;19.60;14.27;;;6.00;71.60;;;;;;5012471;28;20641;-62
2021/01/16 10:14:20;;;;;;;22.30;14.57;;;6.10;70.60;;;;;;4975594;28;20314;-62
2021/01/16 10:16:48;;;;;;;21.43;15.83;;;6.10;70.80;;;;;;5008853;28;20212;-62
2021/01/16 10:19:16;;;;;;;23.57;16.03;;;6.20;70.60;;;;;;5012757;28;20285;-62
2021/01/16 10:21:56;;;;;;;21.90;15.70;;;6.20;70.30;;;;;;5011541;28;20223;-63
2021/01/16 10:24:24;;;;;;;21.80;15.30;;;6.30;70.10;;;;;;5007701;28;20209;-62
2021/01/16 10:26:52;;;;;;;20.10;15.10;;;6.40;70.10;;;;;;5025839;28;20611;-62
2021/01/16 10:29:33;;;;;;;21.63;15.53;;;6.40;70.00;;;;;;5011019;28;20203;-62
2021/01/16 10:32:20;;;;;;;22.53;16.37;;;6.50;69.60;;;;;;5014689;28;20215;-62
2021/01/16 10:34:49;;;;;;;20.90;16.07;;;6.50;69.60;;;;;;5030245;28;20258;-62
2021/01/16 10:37:17;;;;;;;21.50;17.30;;;6.50;69.70;;;;;;5015133;28;20243;-63
2021/01/16 10:39:50;;;;;;;21.63;17.13;;;6.60;69.50;;;;;;5014838;28;20231;-62
2021/01/16 10:42:19;;;;;;;21.43;15.87;;;6.60;69.50;;;;;;5016945;28;20199;-62
2021/01/16 10:44:46;;;;;;;21.13;16.40;;;6.60;69.10;;;;;;5015432;28;20620;-62
2021/01/16 10:47:32;;;;;;;24.13;16.23;;;6.60;69.20;;;;;;5031059;28;20208;-62
2021/01/16 10:50:10;;;;;;;21.17;16.63;;;6.70;69.30;;;;;;5015220;28;20277;-62
2021/01/16 10:52:37;;;;;;;22.30;17.10;;;6.70;69.30;;;;;;5029569;28;20294;-62
2021/01/16 10:55:09;;;;;;;23.67;17.67;;;6.70;69.10;;;;;;5005890;28;20216;-62
2021/01/16 10:57:49;;;;;;;27.80;15.93;;;6.80;69.20;;;;;;5014981;28;20226;-62
2021/01/16 11:00:19;;;;;;;24.20;16.80;;;6.80;69.30;;;;;;5010963;28;20227;-62
2021/01/16 11:02:47;;;;;;;23.70;17.57;;;6.90;69.30;;;;;;5014609;28;20287;-62
2021/01/16 11:05:25;;;;;;;20.77;16.60;;;6.90;69.30;;;;;;5014809;28;20558;-62
2021/01/16 11:07:56;;;;;;;22.60;16.90;;;7.00;69.10;;;;;;5014943;28;20526;-62
2021/01/16 11:10:34;;;;;;;19.47;15.93;;;7.10;68.90;;;;;;5012522;28;20295;-62
2021/01/16 11:13:20;;;;;;;19.50;16.37;;;7.10;68.40;;;;;;5014170;28;20215;-63
2021/01/16 11:16:16;;;;;;;25.23;16.53;;;7.20;67.90;;;;;;5012906;28;20223;-62
2021/01/16 11:18:44;;;;;;;22.47;16.67;;;7.30;67.80;;;;;;5009110;28;20263;-62
2021/01/16 11:21:19;;;;;;;19.93;15.57;;;7.40;67.20;;;;;;5029984;28;20565;-62
2021/01/16 11:23:45;;;;;;;25.73;16.27;;;7.40;67.20;;;;;;5013111;28;20655;-62
2021/01/16 11:26:14;;;;;;;25.90;16.57;;;7.50;67.10;;;;;;5015534;28;20624;-62
2021/01/16 11:28:55;;;;;;;25.57;16.57;;;7.60;66.80;;;;;;5014842;28;20691;-62
2021/01/16 11:31:34;;;;;;;26.00;17.27;;;7.70;66.60;;;;;;5014813;28;20249;-62
2021/01/16 11:34:09;;;;;;;23.20;16.53;;;7.80;66.00;;;;;;5014654;28;20205;-62
2021/01/16 11:36:51;;;;;;;20.30;15.17;;;7.80;66.10;;;;;;5014943;28;20208;-62
2021/01/16 11:39:51;;;;;;;21.13;16.27;;;7.90;65.80;;;;;;5014163;28;20248;-62
2021/01/16 11:42:20;;;;;;;21.47;15.67;;;8.10;66.00;;;;;;5006048;28;20216;-62
2021/01/16 11:44:57;;;;;;;22.63;15.77;;;8.20;66.20;;;;;;5012746;28;20207;-62
2021/01/16 11:47:25;;;;;;;19.10;15.73;;;8.20;65.70;;;;;;5015282;28;20215;-62
2021/01/16 11:49:53;;;;;;;19.00;14.80;;;8.30;66.10;;;;;;5014408;28;20218;-62
2021/01/16 11:52:19;;;;;;;19.07;16.00;;;8.40;65.10;;;;;;5014936;28;20215;-62
2021/01/16 11:54:48;;;;;;;20.77;14.90;;;8.50;64.70;;;;;;5014120;28;20215;-62
2021/01/16 11:57:19;;;;;;;19.77;14.57;;;8.60;64.80;;;;;;5015599;28;20218;-61
2021/01/16 11:59:47;;;;;;;18.87;13.70;;;8.60;64.40;;;;;;5014373;28;20231;-62
2021/01/16 12:02:19;;;;;;;15.10;11.93;;;8.70;63.90;;;;;;5014713;28;20571;-62
2021/01/16 12:04:47;;;;;;;19.10;12.67;;;8.80;64.10;;;;;;5014433;28;20215;-62
2021/01/16 12:07:16;;;;;;;14.53;12.87;;;8.90;63.10;;;;;;5015244;28;20283;-62
2021/01/16 12:09:44;;;;;;;21.27;13.50;;;8.90;62.30;;;;;;5030154;28;20215;-62
2021/01/16 12:12:31;;;;;;;17.17;13.60;;;8.90;61.80;;;;;;5015010;28;20203;-62
2021/01/16 12:15:03;;;;;;;16.30;13.00;;;8.90;62.10;;;;;;5013095;28;20204;-62
2021/01/16 12:17:30;;;;;;;17.00;12.90;;;9.00;62.40;;;;;;5015112;28;20208;-62
2021/01/16 12:19:58;;;;;;;16.87;12.70;;;9.00;61.80;;;;;;5015004;28;20282;-62
2021/01/16 12:22:29;;;;;;;16.47;11.33;;;9.00;61.10;;;;;;5012931;28;20219;-62
2021/01/16 12:24:57;;;;;;;15.87;12.70;;;8.90;60.20;;;;;;5031036;28;20500;-62
2021/01/16 12:27:24;;;;;;;20.83;12.23;;;8.90;60.60;;;;;;5015025;28;20326;-62
2021/01/16 12:29:55;;;;;;;20.83;12.97;;;8.90;61.10;;;;;;5013469;28;20215;-62
2021/01/16 12:32:22;;;;;;;19.50;14.30;;;9.00;61.60;;;;;;5013873;28;20254;-62
2021/01/16 12:34:54;;;;;;;17.87;14.47;;;8.90;61.00;;;;;;5015145;28;20220;-62
2021/01/16 12:37:28;;;;;;;16.83;14.50;;;8.90;61.20;;;;;;5008782;28;20255;-62
2021/01/16 12:39:59;;;;;;;19.83;14.03;;;8.80;61.70;;;;;;5013469;28;20238;-62
2021/01/16 12:42:29;;;;;;;18.83;13.60;;;8.70;62.00;;;;;;5014093;28;20643;-62
2021/01/16 12:45:12;;;;;;;17.03;11.97;;;8.70;62.60;;;;;;5014096;28;20204;-62
2021/01/16 12:47:41;;;;;;;16.83;12.47;;;8.70;61.80;;;;;;5029703;28;20615;-62
2021/01/16 12:50:09;;;;;;;19.00;12.93;;;8.60;61.50;;;;;;5013233;28;20624;-62
2021/01/16 12:52:36;;;;;;;13.87;11.47;;;8.60;61.60;;;;;;5014254;28;20617;-62
2021/01/16 12:55:10;;;;;;;16.70;12.50;;;8.60;61.80;;;;;;5013455;28;20204;-62
2021/01/16 12:57:38;;;;;;;14.53;12.20;;;8.70;62.10;;;;;;5029107;28;20216;-62